Time;durP1;ratioP1;P1;durP2;ratioP2;P2;SDS_P1;SDS_P2;PMS_P1;PMS_P2;Temp;Humidity;BMP_temperature;BMP_pressure;BME280_temperature;BME280_humidity;BME280_pressure;Samples;Min_cycle;Max_cycle;Signal;HPM_P1;HPM_P2
2021/01/09 11:45:36;;;;;;;31.83;21.17;;;4.00;99.90;;;;;;5016295;28;20421;-86
2021/01/09 11:57:02;;;;;;;27.37;17.13;;;4.50;99.90;;;;;;5162561;22;20486;-84
2021/01/09 12:03:00;;;;;;;23.27;15.93;;;4.50;99.90;;;;;;5041561;23;20485;-84
2021/01/09 12:17:22;;;;;;;22.97;15.60;;;5.10;99.90;;;;;;5031012;23;20465;-86
2021/01/09 12:26:33;;;;;;;23.20;15.03;;;5.10;99.90;;;;;;5016821;28;20500;-85
2021/01/09 12:29:10;;;;;;;18.50;14.13;;;5.20;99.90;;;;;;5018734;28;20465;-85
2021/01/09 12:51:59;;;;;;;18.50;14.10;;;5.50;99.90;;;;;;5046828;22;20467;-84
2021/01/09 12:54:41;;;;;;;21.77;15.47;;;5.40;99.90;;;;;;4997399;28;20212;-85
2021/01/09 12:57:33;;;;;;;14.07;9.77;;;5.50;99.90;;;;;;5083421;23;20246;-85
2021/01/09 13:00:37;;;;;;;17.60;10.53;;;5.70;99.90;;;;;;5059850;28;20432;-86
2021/01/09 13:03:13;;;;;;;13.83;10.23;;;5.90;99.90;;;;;;5081871;22;20443;-86
2021/01/09 13:06:02;;;;;;;13.13;9.60;;;5.90;99.90;;;;;;5019360;28;20457;-86
2021/01/09 13:15:04;;;;;;;14.70;10.30;;;5.90;99.90;;;;;;5276138;22;20478;-86
2021/01/09 15:03:20;;;;;;;18.53;12.03;;;5.90;99.90;;;;;;5118428;23;20240;-86
2021/01/09 15:49:06;;;;;;;24.23;15.90;;;5.40;99.90;;;;;;1883535;22;20493;31
2021/01/09 15:51:52;;;;;;;22.70;16.40;;;5.60;99.90;;;;;;4972836;29;20241;-85
2021/01/09 16:00:25;;;;;;;27.50;17.07;;;5.50;99.90;;;;;;5028087;23;20201;-86
2021/01/09 16:03:27;;;;;;;24.73;16.17;;;5.40;99.90;;;;;;5019745;28;20208;-83
2021/01/09 16:06:28;;;;;;;26.67;17.30;;;5.20;99.90;;;;;;5019795;28;20267;-85
2021/01/09 16:34:26;;;;;;;27.10;19.07;;;4.70;99.90;;;;;;5062491;22;20799;31
2021/01/09 16:37:31;;;;;;;32.57;18.67;;;4.70;99.90;;;;;;5024074;23;20501;-80
2021/01/09 17:00:18;;;;;;;26.00;19.83;;;4.10;99.90;;;;;;5055467;28;20222;-84
2021/01/09 17:02:50;;;;;;;28.50;19.10;;;4.00;99.90;;;;;;5083756;23;20248;-85
2021/01/09 17:05:41;;;;;;;25.23;19.83;;;4.00;99.90;;;;;;5284270;22;20240;-84
2021/01/09 17:10:45;;;;;;;27.43;21.07;;;3.90;99.90;;;;;;5113201;23;20508;-85
2021/01/09 17:13:13;;;;;;;32.30;23.20;;;3.80;99.90;;;;;;5017662;28;20486;-84
2021/01/09 17:18:55;;;;;;;26.67;20.73;;;3.50;99.90;;;;;;5023155;28;20490;-85
2021/01/09 17:21:26;;;;;;;29.90;21.53;;;3.30;99.90;;;;;;5001740;28;20442;-85
2021/01/09 17:29:57;;;;;;;31.27;22.80;;;3.10;99.90;;;;;;5154246;22;20501;-85
2021/01/09 17:32:32;;;;;;;32.70;22.93;;;3.00;99.90;;;;;;5067572;23;20509;-86
2021/01/09 17:38:00;;;;;;;33.83;22.47;;;2.70;99.90;;;;;;5309536;23;20481;-85
2021/01/09 17:40:49;;;;;;;33.07;22.93;;;2.60;99.90;;;;;;5471854;22;20489;-84
2021/01/09 17:43:32;;;;;;;31.20;24.20;;;2.50;99.90;;;;;;5001836;28;20446;-86
2021/01/09 17:46:11;;;;;;;30.90;22.67;;;2.30;99.90;;;;;;5002007;28;20442;-86
2021/01/09 17:48:52;;;;;;;36.47;24.77;;;2.30;99.90;;;;;;5040737;23;20493;-85
2021/01/09 17:51:57;;;;;;;32.07;22.97;;;2.20;99.90;;;;;;5005279;28;20449;-85
2021/01/09 17:55:04;;;;;;;36.67;23.73;;;2.10;99.90;;;;;;5019499;28;20469;-84
2021/01/09 17:57:40;;;;;;;34.20;23.80;;;2.20;99.90;;;;;;5016542;28;20529;-86
2021/01/09 18:06:30;;;;;;;36.70;24.67;;;1.90;99.90;;;;;;5091005;22;20224;-86
2021/01/09 18:09:24;;;;;;;29.73;23.37;;;1.80;99.90;;;;;;4998254;28;20435;-86
2021/01/09 18:12:07;;;;;;;34.37;23.73;;;1.80;99.90;;;;;;4997860;28;20427;-86
2021/01/09 18:14:37;;;;;;;33.37;22.80;;;1.90;99.90;;;;;;4997580;28;20490;-85
2021/01/09 18:17:14;;;;;;;31.93;22.60;;;2.20;99.90;;;;;;4997572;28;20474;-85
2021/01/09 18:20:10;;;;;;;30.37;23.00;;;2.10;99.90;;;;;;4998844;28;20469;-86
2021/01/09 18:22:42;;;;;;;31.47;23.23;;;2.00;99.90;;;;;;4998197;28;20431;-85
2021/01/09 18:25:22;;;;;;;34.57;22.53;;;2.00;99.90;;;;;;4980483;28;20546;-86
2021/01/09 18:30:58;;;;;;;31.60;21.70;;;2.20;99.90;;;;;;5002026;28;20438;-85
2021/01/09 18:39:43;;;;;;;28.97;22.30;;;1.90;99.90;;;;;;4977230;28;20480;-86
2021/01/09 18:50:28;;;;;;;31.97;22.87;;;1.80;99.90;;;;;;4994765;28;20491;-86
2021/01/09 18:55:52;;;;;;;31.60;22.83;;;1.90;99.90;;;;;;5218177;22;20545;-86
2021/01/09 19:01:15;;;;;;;34.77;21.97;;;1.80;99.90;;;;;;5016400;28;20473;-85
2021/01/09 19:03:55;;;;;;;30.80;21.50;;;1.80;99.90;;;;;;5018202;28;20438;-86
2021/01/09 19:06:32;;;;;;;35.93;23.63;;;1.70;99.90;;;;;;5018071;28;20461;-86
2021/01/09 19:09:24;;;;;;;38.73;24.23;;;1.70;99.90;;;;;;5219823;22;20458;-86
2021/01/09 19:23:30;;;;;;;32.67;22.47;;;1.50;99.90;;;;;;4993013;28;20494;-85
2021/01/09 19:34:52;;;;;;;47.80;37.25;;;1.00;99.90;;;;;;5009753;28;20446;-86
2021/01/09 19:37:39;;;;;;;39.53;27.87;;;1.00;99.90;;;;;;5014867;28;20235;-86
2021/01/09 19:46:53;;;;;;;37.87;23.63;;;1.00;99.90;;;;;;2791222;22;21457;-85
2021/01/09 19:49:31;;;;;;;37.47;24.87;;;0.80;99.90;;;;;;4988887;28;20459;-86
2021/01/09 19:52:06;;;;;;;39.63;26.33;;;0.80;99.90;;;;;;4978272;28;20470;-86
2021/01/09 19:54:47;;;;;;;41.17;25.23;;;0.70;99.90;;;;;;4994704;28;20489;-86
2021/01/09 19:57:15;;;;;;;36.73;25.37;;;0.60;99.90;;;;;;4994042;28;20482;-86
2021/01/09 19:59:48;;;;;;;46.70;26.37;;;0.60;99.90;;;;;;4994641;28;20431;-86
2021/01/09 20:02:20;;;;;;;43.53;25.27;;;0.60;99.90;;;;;;4994890;28;20467;-86
2021/01/09 20:04:53;;;;;;;48.20;28.23;;;0.60;99.90;;;;;;4994424;28;20450;-86
2021/01/09 20:12:53;;;;;;;62.13;29.23;;;0.60;99.90;;;;;;5012504;28;20494;-85
2021/01/09 20:15:23;;;;;;;62.40;30.17;;;0.50;99.90;;;;;;5014898;28;20446;-85
2021/01/09 20:18:05;;;;;;;79.63;31.53;;;0.40;99.90;;;;;;5013834;28;20470;-85
2021/01/09 20:20:55;;;;;;;66.83;29.57;;;0.40;99.90;;;;;;5029483;22;20566;-86
2021/01/09 20:23:23;;;;;;;81.93;31.83;;;0.30;99.90;;;;;;5036857;23;20521;-85
2021/01/09 20:26:01;;;;;;;71.97;31.90;;;0.30;99.90;;;;;;5012761;28;20881;-85
2021/01/09 20:28:29;;;;;;;80.60;32.63;;;0.20;99.90;;;;;;5012932;28;20474;-85
2021/01/09 20:33:54;;;;;;;70.03;29.80;;;0.20;99.90;;;;;;4994499;28;20473;-86
2021/01/09 20:36:38;;;;;;;80.40;36.50;;;0.10;99.90;;;;;;4993782;28;20431;-86
2021/01/09 20:41:57;;;;;;;55.10;27.73;;;0.20;99.90;;;;;;5015488;28;20450;-86
2021/01/09 20:47:29;;;;;;;48.87;27.33;;;0.30;99.90;;;;;;5036993;22;20494;-85
2021/01/09 20:50:03;;;;;;;40.20;24.73;;;0.30;99.90;;;;;;5015766;28;20434;-85
2021/01/09 20:52:37;;;;;;;35.97;22.93;;;0.30;99.90;;;;;;5015258;28;20509;-85
2021/01/09 20:55:10;;;;;;;39.57;24.17;;;0.30;99.90;;;;;;5014917;28;20482;-85
2021/01/09 20:57:41;;;;;;;44.03;24.80;;;0.30;99.90;;;;;;5015451;28;20482;-85
2021/01/09 21:00:10;;;;;;;45.03;25.87;;;0.30;99.90;;;;;;5014934;28;20494;-85
2021/01/09 21:02:40;;;;;;;43.13;26.33;;;0.30;99.90;;;;;;5014736;28;20446;-85
2021/01/09 21:05:12;;;;;;;47.77;26.47;;;0.40;99.90;;;;;;5014628;28;20457;-85
2021/01/09 21:07:41;;;;;;;43.00;26.87;;;0.40;99.90;;;;;;5015052;28;20481;-85
2021/01/09 21:10:13;;;;;;;41.37;25.60;;;0.40;99.90;;;;;;5014847;28;20449;-85
2021/01/09 21:12:42;;;;;;;42.67;26.60;;;0.40;99.90;;;;;;5015327;28;20550;-85
2021/01/09 21:15:12;;;;;;;37.60;23.47;;;0.40;99.90;;;;;;5014631;28;20493;-85
2021/01/09 21:17:42;;;;;;;44.93;26.70;;;0.40;99.90;;;;;;5014822;28;20521;-85
2021/01/09 21:20:10;;;;;;;37.97;24.50;;;0.20;99.90;;;;;;5014847;28;20469;-85
2021/01/09 21:22:37;;;;;;;42.57;24.70;;;0.10;99.90;;;;;;5014371;28;20454;-85
2021/01/09 21:25:07;;;;;;;46.03;25.93;;;0.20;99.90;;;;;;5014342;28;20457;-85
2021/01/09 21:27:34;;;;;;;41.70;23.70;;;0.10;99.90;;;;;;5014130;28;20482;-86
2021/01/09 21:30:02;;;;;;;40.23;24.57;;;0.10;99.90;;;;;;5013452;28;20450;-85
2021/01/09 21:32:33;;;;;;;44.90;25.70;;;0.10;99.90;;;;;;5013592;28;20470;-85
2021/01/09 21:35:01;;;;;;;43.77;24.27;;;0.00;99.90;;;;;;5013073;28;20509;-85
2021/01/09 21:37:28;;;;;;;47.70;25.07;;;0.00;99.90;;;;;;5013292;28;20529;-83
2021/01/09 21:39:56;;;;;;;66.45;41.03;;;0.00;99.90;;;;;;5012334;28;20449;-85
2021/01/09 21:42:26;;;;;;;45.43;27.87;;;0.10;99.90;;;;;;5013621;28;20754;-85
2021/01/09 21:44:53;;;;;;;45.80;26.40;;;0.00;99.90;;;;;;5014230;28;20457;-85
2021/01/09 21:47:22;;;;;;;41.47;24.10;;;0.00;99.90;;;;;;5012667;28;20478;-85
2021/01/09 21:50:07;;;;;;;42.67;23.83;;;0.10;99.90;;;;;;5013051;28;20431;-85
2021/01/09 21:52:41;;;;;;;44.40;21.70;;;0.10;99.90;;;;;;5013000;28;20438;-85
2021/01/09 21:55:10;;;;;;;34.33;22.27;;;0.00;99.90;;;;;;5013049;28;20486;-85
2021/01/09 21:57:43;;;;;;;36.47;21.10;;;0.00;99.90;;;;;;5012558;28;20466;-85
2021/01/09 22:00:11;;;;;;;36.50;23.43;;;-0.10;99.90;;;;;;5013106;28;20446;-85
2021/01/09 22:02:40;;;;;;;37.30;21.37;;;0.00;99.90;;;;;;5013924;28;20426;-85
2021/01/09 22:05:08;;;;;;;45.67;24.57;;;0.00;99.90;;;;;;5013634;28;20477;-85
2021/01/09 22:07:35;;;;;;;43.93;23.30;;;0.20;99.90;;;;;;4995314;28;20513;-85
2021/01/09 22:10:08;;;;;;;41.07;24.40;;;0.10;99.90;;;;;;5013090;28;20485;-85
2021/01/09 22:12:45;;;;;;;41.07;23.73;;;0.20;99.90;;;;;;5018411;28;20525;-85
2021/01/09 22:15:26;;;;;;;44.93;23.97;;;0.10;99.90;;;;;;5017430;28;20482;-85
2021/01/09 22:17:53;;;;;;;37.73;23.27;;;0.30;99.90;;;;;;5016510;28;20478;-85
2021/01/09 22:20:22;;;;;;;44.17;23.30;;;0.30;99.90;;;;;;5007996;28;20486;-85
2021/01/09 22:22:56;;;;;;;36.47;22.70;;;0.30;99.90;;;;;;4998573;28;20440;-85
2021/01/09 22:25:38;;;;;;;40.13;23.30;;;0.20;99.90;;;;;;4980523;28;20427;-85
2021/01/09 22:28:10;;;;;;;36.77;23.60;;;0.20;99.90;;;;;;4996938;28;20494;-85
2021/01/09 22:30:46;;;;;;;35.43;21.73;;;0.20;99.90;;;;;;4998918;28;20518;-84
2021/01/09 22:33:14;;;;;;;36.80;22.30;;;0.30;99.90;;;;;;4997528;28;20534;-85
2021/01/09 22:35:41;;;;;;;38.10;23.00;;;0.30;99.90;;;;;;4997951;28;20539;-85
2021/01/09 22:38:10;;;;;;;37.23;23.63;;;0.30;99.90;;;;;;4997806;28;20471;-85
2021/01/09 22:40:38;;;;;;;31.27;20.53;;;0.30;99.90;;;;;;4997037;28;20478;-85
2021/01/09 22:43:20;;;;;;;34.27;21.30;;;0.30;99.90;;;;;;4997391;28;20455;-85
2021/01/09 22:45:53;;;;;;;32.50;20.13;;;0.40;99.90;;;;;;4981684;28;20434;-85
2021/01/09 22:48:31;;;;;;;32.33;21.33;;;0.40;99.90;;;;;;4996129;28;20479;-85
2021/01/09 22:50:58;;;;;;;36.00;22.03;;;0.40;99.90;;;;;;4980416;28;20482;-85
2021/01/09 22:53:27;;;;;;;37.03;22.60;;;0.60;99.90;;;;;;4995874;28;20479;-85
2021/01/09 22:55:54;;;;;;;34.40;20.33;;;0.50;99.90;;;;;;4996249;28;20466;-86
2021/01/09 22:58:28;;;;;;;33.80;21.23;;;0.40;99.90;;;;;;4996376;28;20470;-85
2021/01/09 23:03:31;;;;;;;29.70;19.97;;;0.50;99.90;;;;;;5080326;23;20492;-85
2021/01/09 23:05:58;;;;;;;36.67;22.03;;;0.70;99.90;;;;;;5033945;22;20498;-84
2021/01/09 23:08:29;;;;;;;40.30;21.43;;;0.70;99.90;;;;;;5016781;28;20517;-85
2021/01/09 23:11:01;;;;;;;37.73;21.53;;;0.70;99.90;;;;;;5015583;28;20442;-85
2021/01/09 23:13:30;;;;;;;35.40;21.17;;;0.60;99.90;;;;;;5016231;28;20484;-85
2021/01/09 23:16:00;;;;;;;41.67;22.90;;;0.60;99.90;;;;;;5016601;28;20458;-85
2021/01/09 23:18:37;;;;;;;41.43;20.77;;;0.60;99.90;;;;;;5016861;28;20489;-86
2021/01/09 23:21:16;;;;;;;38.97;23.07;;;0.70;99.90;;;;;;5037537;23;20486;-82
2021/01/09 23:23:45;;;;;;;36.30;21.43;;;0.50;99.90;;;;;;5231296;22;20593;-84
2021/01/09 23:26:18;;;;;;;43.23;22.60;;;0.40;99.90;;;;;;5017715;28;20442;-85
2021/01/09 23:29:11;;;;;;;40.60;22.40;;;0.30;99.90;;;;;;4998189;28;20443;-86
2021/01/09 23:31:39;;;;;;;36.73;21.10;;;0.40;99.90;;;;;;4995723;28;20451;-85
2021/01/09 23:34:15;;;;;;;40.50;23.03;;;0.40;99.90;;;;;;5019469;23;20482;-84
2021/01/09 23:36:47;;;;;;;39.90;21.17;;;0.50;99.90;;;;;;4997403;28;20431;-84
2021/01/09 23:39:25;;;;;;;35.93;20.80;;;0.60;99.90;;;;;;5022815;22;20494;-85
2021/01/09 23:41:52;;;;;;;42.33;22.50;;;0.60;99.90;;;;;;5012210;28;20439;-85
2021/01/09 23:44:24;;;;;;;34.60;21.63;;;0.60;99.90;;;;;;5013553;28;20454;-86
2021/01/09 23:49:33;;;;;;;35.57;21.07;;;0.60;99.90;;;;;;4988492;28;20491;-84
2021/01/09 23:52:00;;;;;;;33.40;20.27;;;0.50;99.90;;;;;;4988246;28;20431;-84
2021/01/09 23:54:54;;;;;;;37.33;21.30;;;0.70;99.90;;;;;;5010006;22;20471;-83
